createdAt,value
2023-04-06T00:00:34.924Z,163.28
2023-04-06T00:01:34.990Z,163.73
2023-04-06T00:02:35.079Z,167.61
2023-04-06T00:03:35.118Z,166.40
2023-04-06T00:04:35.057Z,177.47
2023-04-06T00:05:35.089Z,173.33
2023-04-06T00:06:35.151Z,173.75
2023-04-06T00:07:35.196Z,173.32
2023-04-06T00:08:35.164Z,176.02
2023-04-06T00:09:35.209Z,171.78
2023-04-06T00:10:35.229Z,170.57
2023-04-06T00:11:35.290Z,173.16
2023-04-06T00:12:35.308Z,176.41
2023-04-06T00:13:35.332Z,170.22
2023-04-06T00:14:35.382Z,171.78
2023-04-06T00:15:35.416Z,176.39
2023-04-06T00:16:35.495Z,174.13
2023-04-06T00:17:35.540Z,174.67
2023-04-06T00:18:35.485Z,171.89
2023-04-06T00:19:35.509Z,175.41
2023-04-06T00:20:35.529Z,172.79
2023-04-06T00:21:35.595Z,173.28
2023-04-06T00:22:35.604Z,176.82
2023-04-06T00:23:35.662Z,173.53
2023-04-06T00:24:35.758Z,170.78
2023-04-06T00:25:35.761Z,173.47
2023-04-06T00:26:35.785Z,173.57
2023-04-06T00:27:35.756Z,174.70
2023-04-06T00:28:35.814Z,170.85
2023-04-06T00:29:35.820Z,172.13
2023-04-06T00:30:35.862Z,174.39
2023-04-06T00:31:35.888Z,177.15
2023-04-06T00:32:35.969Z,178.28
2023-04-06T00:33:35.938Z,179.37
2023-04-06T00:34:35.978Z,182.15
2023-04-06T00:35:35.978Z,182.94
2023-04-06T00:36:36.035Z,186.26
2023-04-06T00:37:36.047Z,182.07
2023-04-06T00:38:36.101Z,175.97
2023-04-06T00:39:36.129Z,177.84
2023-04-06T00:40:36.142Z,181.08
2023-04-06T00:41:36.173Z,179.25
2023-04-06T00:42:36.194Z,180.18
2023-04-06T00:43:36.220Z,177.07
2023-04-06T00:44:36.278Z,181.84
2023-04-06T00:45:36.280Z,180.57
2023-04-06T00:46:36.523Z,181.07
2023-04-06T00:47:36.363Z,178.46
2023-04-06T00:48:36.356Z,177.70
2023-04-06T00:49:36.397Z,180.87
2023-04-06T00:50:36.428Z,179.82
2023-04-06T00:51:36.465Z,182.53
2023-04-06T00:52:36.484Z,183.66
2023-04-06T00:53:36.537Z,182.28
2023-04-06T00:54:36.551Z,184.24
2023-04-06T00:55:36.575Z,184.51
2023-04-06T00:56:36.629Z,186.06
2023-04-06T00:57:36.657Z,186.57
2023-04-06T00:58:36.669Z,190.85
2023-04-06T00:59:36.853Z,191.99
2023-04-06T01:00:36.740Z,196.47
2023-04-06T01:01:36.823Z,193.68
2023-04-06T01:02:36.832Z,196.06
2023-04-06T01:03:36.886Z,194.87
2023-04-06T01:04:36.878Z,193.38
2023-04-06T01:05:36.942Z,196.65
2023-04-06T01:06:36.937Z,193.53
2023-04-06T01:07:36.967Z,196.20
2023-04-06T01:08:37.027Z,194.92
2023-04-06T01:09:37.046Z,196.29
2023-04-06T01:10:37.093Z,194.29
2023-04-06T01:11:37.128Z,194.30
2023-04-06T01:12:37.188Z,193.31
2023-04-06T01:13:37.185Z,196.79
2023-04-06T01:14:37.218Z,199.19
2023-04-06T01:15:37.315Z,196.43
2023-04-06T01:16:37.297Z,201.15
2023-04-06T01:17:37.348Z,194.51
2023-04-06T01:18:37.382Z,197.40
2023-04-06T01:19:37.405Z,199.32
2023-04-06T01:20:37.427Z,196.17
2023-04-06T01:21:37.442Z,199.27
2023-04-06T01:22:37.480Z,201.49
2023-04-06T01:23:37.542Z,207.23
2023-04-06T01:24:37.593Z,204.43
2023-04-06T01:25:37.622Z,203.72
2023-04-06T01:26:37.611Z,206.92
2023-04-06T01:27:37.662Z,209.08
2023-04-06T01:28:37.723Z,209.19
2023-04-06T01:29:37.760Z,211.33
2023-04-06T01:30:37.749Z,215.01
2023-04-06T01:31:37.843Z,212.66
2023-04-06T01:32:37.833Z,215.46
2023-04-06T01:33:37.865Z,216.16
2023-04-06T01:34:37.873Z,218.20
2023-04-06T01:35:38.053Z,224.29
2023-04-06T01:36:38.030Z,224.69
2023-04-06T01:37:38.010Z,224.79
2023-04-06T01:38:38.070Z,224.13
2023-04-06T01:39:38.105Z,223.28
2023-04-06T01:40:38.125Z,224.66
2023-04-06T01:41:38.160Z,227.32
2023-04-06T01:42:38.202Z,228.08
2023-04-06T01:43:38.222Z,227.03
2023-04-06T01:44:38.265Z,226.75
2023-04-06T01:45:38.285Z,228.74
2023-04-06T01:46:38.312Z,226.32
2023-04-06T01:47:38.416Z,228.32
2023-04-06T01:48:38.389Z,229.62
2023-04-06T01:49:38.422Z,228.37
2023-04-06T01:50:38.479Z,232.82
2023-04-06T01:51:38.488Z,232.53
2023-04-06T01:52:38.539Z,229.44
2023-04-06T01:53:38.552Z,224.38
2023-04-06T01:54:38.648Z,228.48
2023-04-06T01:55:38.658Z,222.92
2023-04-06T01:56:38.678Z,219.83
2023-04-06T01:57:38.715Z,217.06
2023-04-06T01:58:38.729Z,216.97
2023-04-06T01:59:38.849Z,213.04
2023-04-06T02:00:38.844Z,210.62
2023-04-06T02:01:38.863Z,210.02
2023-04-06T02:02:39.010Z,214.92
2023-04-06T02:03:38.913Z,209.85
2023-04-06T02:04:38.984Z,205.48
2023-04-06T02:05:39.000Z,204.98
2023-04-06T02:06:39.023Z,213.22
2023-04-06T02:07:39.084Z,208.36
2023-04-06T02:08:39.152Z,201.54
2023-04-06T02:09:39.152Z,200.16
2023-04-06T02:10:39.216Z,206.51
2023-04-06T02:11:39.212Z,204.61
2023-04-06T02:12:39.267Z,203.26
2023-04-06T02:13:39.269Z,198.80
2023-04-06T02:14:39.313Z,208.19
2023-04-06T02:15:39.364Z,208.60
2023-04-06T02:16:39.456Z,202.06
2023-04-06T02:17:39.499Z,204.11
2023-04-06T02:18:39.452Z,204.65
2023-04-06T02:19:39.473Z,213.79
2023-04-06T02:20:39.515Z,210.47
2023-04-06T02:21:39.566Z,205.06
2023-04-06T02:22:39.588Z,202.20
2023-04-06T02:23:39.659Z,208.07
2023-04-06T02:24:39.677Z,212.29
2023-04-06T02:25:39.685Z,208.06
2023-04-06T02:26:39.737Z,206.34
2023-04-06T02:27:39.761Z,204.76
2023-04-06T02:28:39.767Z,206.40
2023-04-06T02:29:39.837Z,204.66
2023-04-06T02:30:39.860Z,206.78
2023-04-06T02:31:39.957Z,205.59
2023-04-06T02:32:40.042Z,207.29
2023-04-06T02:33:39.961Z,204.23
2023-04-06T02:34:40.014Z,206.14
2023-04-06T02:35:40.095Z,206.49
2023-04-06T02:36:40.041Z,209.54
2023-04-06T02:37:40.033Z,207.25
2023-04-06T02:38:40.044Z,207.26
2023-04-06T02:39:40.067Z,204.90
2023-04-06T02:40:40.074Z,213.16
2023-04-06T02:41:40.120Z,211.57
2023-04-06T02:42:40.107Z,210.22
2023-04-06T02:43:40.160Z,210.32
2023-04-06T02:44:40.227Z,225.16
2023-04-06T02:45:40.413Z,221.90
2023-04-06T02:46:40.316Z,218.37
2023-04-06T02:47:41.258Z,215.48
2023-04-06T02:48:40.418Z,215.14
2023-04-06T02:49:40.409Z,221.53
2023-04-06T02:50:40.445Z,226.83
2023-04-06T02:51:40.471Z,223.44
2023-04-06T02:52:40.531Z,224.00
2023-04-06T02:53:40.543Z,225.01
2023-04-06T02:54:40.593Z,228.28
2023-04-06T02:55:40.648Z,227.32
2023-04-06T02:56:40.651Z,231.03
2023-04-06T02:57:40.722Z,229.51
2023-04-06T02:58:40.780Z,231.31
2023-04-06T02:59:40.920Z,232.10
2023-04-06T03:00:40.832Z,235.43
2023-04-06T03:01:40.887Z,236.20
2023-04-06T03:02:41.047Z,230.67
2023-04-06T03:03:40.987Z,231.93
2023-04-06T03:04:40.979Z,236.59
2023-04-06T03:05:41.031Z,232.01
2023-04-06T03:06:41.139Z,230.05
2023-04-06T03:07:41.128Z,228.47
2023-04-06T03:08:41.191Z,228.65
2023-04-06T03:09:41.226Z,225.23
2023-04-06T03:10:41.276Z,227.63
2023-04-06T03:11:41.272Z,229.69
2023-04-06T03:12:41.324Z,228.43
2023-04-06T03:13:41.359Z,231.68
2023-04-06T03:14:41.432Z,228.71
2023-04-06T03:15:41.506Z,227.59
2023-04-06T03:16:41.504Z,227.57
2023-04-06T03:17:41.522Z,231.55
2023-04-06T03:18:41.579Z,232.09
2023-04-06T03:19:41.644Z,229.15
2023-04-06T03:20:41.666Z,233.01
2023-04-06T03:21:41.740Z,236.78
2023-04-06T03:22:41.754Z,233.36
2023-04-06T03:23:41.819Z,238.47
2023-04-06T03:24:41.853Z,235.46
2023-04-06T03:25:41.881Z,237.66
2023-04-06T03:26:41.935Z,239.79
2023-04-06T03:27:41.957Z,246.40
2023-04-06T03:28:42.021Z,245.63
2023-04-06T03:29:42.059Z,247.30
2023-04-06T03:30:42.095Z,245.12
2023-04-06T03:31:42.217Z,245.31
2023-04-06T03:32:42.243Z,247.62
2023-04-06T03:33:42.224Z,248.48
2023-04-06T03:34:42.263Z,249.83
2023-04-06T03:35:42.329Z,247.66
2023-04-06T03:36:42.382Z,246.35
2023-04-06T03:37:42.417Z,247.81
2023-04-06T03:38:42.448Z,248.33
2023-04-06T03:39:42.496Z,247.56
2023-04-06T03:40:42.518Z,249.82
2023-04-06T03:41:42.577Z,246.51
2023-04-06T03:42:42.616Z,247.42
2023-04-06T03:43:42.660Z,247.69
2023-04-06T03:44:42.722Z,247.96
2023-04-06T03:45:42.758Z,248.75
2023-04-06T03:46:42.842Z,250.40
2023-04-06T03:47:42.838Z,246.02
2023-04-06T03:48:42.867Z,249.35
2023-04-06T03:49:42.872Z,251.18
2023-04-06T03:50:42.929Z,246.65
2023-04-06T03:51:43.033Z,244.83
2023-04-06T03:52:43.015Z,248.23
2023-04-06T03:53:43.036Z,246.29
2023-04-06T03:54:43.091Z,249.26
2023-04-06T03:55:43.120Z,250.00
2023-04-06T03:56:43.156Z,250.00
2023-04-06T03:57:43.184Z,246.22
2023-04-06T03:58:43.240Z,250.00
2023-04-06T03:59:43.387Z,249.10
2023-04-06T04:00:43.293Z,248.65
2023-04-06T04:01:43.409Z,248.97
2023-04-06T04:02:43.357Z,247.68
2023-04-06T04:03:43.460Z,244.83
2023-04-06T04:04:43.433Z,247.96
2023-04-06T04:05:43.422Z,250.00
2023-04-06T04:06:43.482Z,249.05
2023-04-06T04:07:43.542Z,247.81
2023-04-06T04:08:43.565Z,247.80
2023-04-06T04:09:43.622Z,247.92
2023-04-06T04:10:43.623Z,248.69
2023-04-06T04:11:43.682Z,244.73
2023-04-06T04:12:43.751Z,248.60
2023-04-06T04:13:43.791Z,250.00
2023-04-06T04:14:43.803Z,250.00
2023-04-06T04:15:43.878Z,249.96
2023-04-06T04:16:43.938Z,250.00
2023-04-06T04:17:44.456Z,250.00
2023-04-06T04:18:43.992Z,249.00
2023-04-06T04:19:44.008Z,247.43
2023-04-06T04:20:44.100Z,248.41
2023-04-06T04:21:44.119Z,248.98
2023-04-06T04:22:44.139Z,250.00
2023-04-06T04:23:44.241Z,247.47
2023-04-06T04:24:44.244Z,248.63
2023-04-06T04:25:44.258Z,247.71
2023-04-06T04:26:44.278Z,249.87
2023-04-06T04:27:44.342Z,249.57
2023-04-06T04:28:44.398Z,250.00
2023-04-06T04:29:44.434Z,248.85
2023-04-06T04:30:44.498Z,247.67
2023-04-06T04:31:44.533Z,249.95
2023-04-06T04:32:44.547Z,250.00
2023-04-06T04:33:44.569Z,247.26
2023-04-06T04:34:44.614Z,247.12
2023-04-06T04:35:44.735Z,245.39
2023-04-06T04:36:44.700Z,248.40
2023-04-06T04:37:44.744Z,247.51
2023-04-06T04:38:44.783Z,249.45
2023-04-06T04:39:44.832Z,250.00
2023-04-06T04:40:44.877Z,247.99
2023-04-06T04:41:44.879Z,249.41
2023-04-06T04:42:44.946Z,247.64
2023-04-06T04:43:44.916Z,245.49
2023-04-06T04:44:44.983Z,244.86
2023-04-06T04:45:45.005Z,246.05
2023-04-06T04:46:45.015Z,248.07
2023-04-06T04:47:45.058Z,247.17
2023-04-06T04:48:45.063Z,248.64
2023-04-06T04:49:45.073Z,247.59
2023-04-06T04:50:45.102Z,249.31
2023-04-06T04:51:45.149Z,247.85
2023-04-06T04:52:45.129Z,249.03
2023-04-06T04:53:45.172Z,247.93
2023-04-06T04:54:45.195Z,249.49
2023-04-06T04:55:45.206Z,248.22
2023-04-06T04:56:45.227Z,246.82
2023-04-06T04:57:45.246Z,246.38
2023-04-06T04:58:45.292Z,247.44
2023-04-06T04:59:45.286Z,247.44
2023-04-06T05:00:56.834Z,248.83
2023-04-06T05:01:54.878Z,249.04
2023-04-06T05:02:46.558Z,249.03
2023-04-06T05:03:45.621Z,249.19
2023-04-06T05:04:45.419Z,249.38
2023-04-06T05:05:45.431Z,250.48
2023-04-06T05:06:45.420Z,252.23
2023-04-06T05:07:45.380Z,248.21
2023-04-06T05:08:45.414Z,250.00
2023-04-06T05:09:45.396Z,249.34
2023-04-06T05:10:45.416Z,249.20
2023-04-06T05:11:45.422Z,249.25
2023-04-06T05:12:45.462Z,246.99
2023-04-06T05:13:45.361Z,248.87
2023-04-06T05:14:45.384Z,248.21
2023-04-06T05:15:45.479Z,248.77
2023-04-06T05:16:45.345Z,249.33
2023-04-06T05:17:45.381Z,249.15
2023-04-06T05:18:45.363Z,247.72
2023-04-06T05:19:45.334Z,246.50
2023-04-06T05:20:45.369Z,248.44
2023-04-06T05:21:45.370Z,247.92
2023-04-06T05:22:45.324Z,247.30
2023-04-06T05:23:45.304Z,245.97
2023-04-06T05:24:45.316Z,249.00
2023-04-06T05:25:45.476Z,247.17
2023-04-06T05:26:45.314Z,246.69
2023-04-06T05:27:45.281Z,249.87
2023-04-06T05:28:45.296Z,248.25
2023-04-06T05:29:45.336Z,248.06
2023-04-06T05:30:45.376Z,246.99
2023-04-06T05:31:45.364Z,247.09
2023-04-06T05:32:45.398Z,247.31
2023-04-06T05:33:45.289Z,249.03
2023-04-06T05:34:45.313Z,250.00
2023-04-06T05:35:45.341Z,250.00
2023-04-06T05:36:45.329Z,249.30
2023-04-06T05:37:45.314Z,249.55
2023-04-06T05:38:45.294Z,249.52
2023-04-06T05:39:45.311Z,248.97
2023-04-06T05:40:45.297Z,248.64
2023-04-06T05:41:45.311Z,248.93
2023-04-06T05:42:45.334Z,248.35
2023-04-06T05:43:45.338Z,249.24
2023-04-06T05:44:45.324Z,248.38
2023-04-06T05:45:45.393Z,248.56
2023-04-06T05:46:52.462Z,249.14
2023-04-06T05:47:45.373Z,249.24
2023-04-06T05:48:45.342Z,249.57
2023-04-06T05:49:45.331Z,250.06
2023-04-06T05:50:45.348Z,251.91
2023-04-06T05:51:45.329Z,254.38
2023-04-06T05:52:45.323Z,247.95
2023-04-06T05:53:45.279Z,248.90
2023-04-06T05:54:45.312Z,248.25
2023-04-06T05:55:45.287Z,248.23
2023-04-06T05:56:45.283Z,248.94
2023-04-06T05:57:45.287Z,249.26
2023-04-06T05:58:45.288Z,249.06
2023-04-06T05:59:45.312Z,247.12
2023-04-06T06:00:45.261Z,248.12
2023-04-06T06:01:45.260Z,250.00
2023-04-06T06:02:45.263Z,246.54
2023-04-06T06:03:45.246Z,248.95
2023-04-06T06:04:45.240Z,248.52
2023-04-06T06:05:45.189Z,250.00
2023-04-06T06:06:45.203Z,249.78
2023-04-06T06:07:45.180Z,248.55
2023-04-06T06:08:45.170Z,249.90
2023-04-06T06:09:45.170Z,246.01
2023-04-06T06:10:45.174Z,247.84
2023-04-06T06:11:45.174Z,249.57
2023-04-06T06:12:45.171Z,247.07
2023-04-06T06:13:45.158Z,248.58
2023-04-06T06:14:45.158Z,248.01
2023-04-06T06:15:45.144Z,248.27
2023-04-06T06:16:45.213Z,247.13
2023-04-06T06:17:45.161Z,247.74
2023-04-06T06:18:45.253Z,248.29
2023-04-06T06:19:45.090Z,248.85
2023-04-06T06:20:45.106Z,248.28
2023-04-06T06:21:45.094Z,248.52
2023-04-06T06:22:45.108Z,248.87
2023-04-06T06:23:45.076Z,247.79
2023-04-06T06:24:45.111Z,249.15
2023-04-06T06:25:45.085Z,247.79
2023-04-06T06:26:45.085Z,246.74
2023-04-06T06:27:45.054Z,247.28
2023-04-06T06:28:45.101Z,247.21
2023-04-06T06:29:45.058Z,247.80
2023-04-06T06:30:45.031Z,248.92
2023-04-06T06:31:45.107Z,249.00
2023-04-06T06:32:45.100Z,248.86
2023-04-06T06:33:45.022Z,247.88
2023-04-06T06:34:45.025Z,249.91
2023-04-06T06:35:45.097Z,248.98
2023-04-06T06:36:47.142Z,248.30
2023-04-06T06:37:45.156Z,249.44
2023-04-06T06:38:45.175Z,249.64
2023-04-06T06:39:45.166Z,249.32
2023-04-06T06:40:45.146Z,246.89
2023-04-06T06:41:45.100Z,246.72
2023-04-06T06:42:45.115Z,246.35
2023-04-06T06:43:45.095Z,246.69
2023-04-06T06:44:45.126Z,248.25
2023-04-06T06:45:45.129Z,247.35
2023-04-06T06:46:45.115Z,247.98
2023-04-06T06:47:45.155Z,245.25
2023-04-06T06:48:45.072Z,244.19
2023-04-06T06:49:45.164Z,243.79
2023-04-06T06:50:45.038Z,245.08
2023-04-06T06:51:45.111Z,244.04
2023-04-06T06:52:45.073Z,243.94
2023-04-06T06:53:45.023Z,244.61
2023-04-06T06:54:44.996Z,243.72
2023-04-06T06:55:44.989Z,242.40
2023-04-06T06:56:45.031Z,241.85
2023-04-06T06:57:45.012Z,241.75
2023-04-06T06:58:45.006Z,239.55
2023-04-06T06:59:44.970Z,239.01
2023-04-06T07:00:44.995Z,239.80
2023-04-06T07:01:44.988Z,238.84
2023-04-06T07:02:45.028Z,237.69
2023-04-06T07:03:45.487Z,239.32
2023-04-06T07:04:45.035Z,238.12
2023-04-06T07:05:44.927Z,238.73
2023-04-06T07:06:44.974Z,236.21
2023-04-06T07:07:45.008Z,237.99
2023-04-06T07:08:44.960Z,237.30
2023-04-06T07:09:44.939Z,236.79
2023-04-06T07:10:44.911Z,237.39
2023-04-06T07:11:44.918Z,235.30
2023-04-06T07:12:44.906Z,235.71
2023-04-06T07:13:44.880Z,237.22
2023-04-06T07:14:44.900Z,238.36
2023-04-06T07:15:44.879Z,234.96
2023-04-06T07:16:44.910Z,233.60
2023-04-06T07:17:44.891Z,231.64
2023-04-06T07:18:44.932Z,233.65
2023-04-06T07:19:45.047Z,232.18
2023-04-06T07:20:44.958Z,233.86
2023-04-06T07:21:44.952Z,234.09
2023-04-06T07:22:45.011Z,234.58
2023-04-06T07:23:44.987Z,236.34
2023-04-06T07:24:44.967Z,233.79
2023-04-06T07:25:44.988Z,232.49
2023-04-06T07:26:45.930Z,232.10
2023-04-06T07:27:44.974Z,230.62
2023-04-06T07:28:45.045Z,230.58
2023-04-06T07:29:44.991Z,230.86
2023-04-06T07:30:44.991Z,232.77
2023-04-06T07:31:45.074Z,231.32
2023-04-06T07:32:45.162Z,229.07
2023-04-06T07:33:45.167Z,229.32
2023-04-06T07:34:45.268Z,228.48
2023-04-06T07:35:45.403Z,229.27
2023-04-06T07:36:45.381Z,227.42
2023-04-06T07:37:45.389Z,226.54
2023-04-06T07:38:45.449Z,226.08
2023-04-06T07:39:45.456Z,227.38
2023-04-06T07:40:45.513Z,226.47
2023-04-06T07:41:45.513Z,225.93
2023-04-06T07:42:45.581Z,225.25
2023-04-06T07:43:45.663Z,228.22
2023-04-06T07:44:45.796Z,227.84
2023-04-06T07:45:45.853Z,227.47
2023-04-06T07:46:45.830Z,227.02
2023-04-06T07:47:45.900Z,226.34
2023-04-06T07:48:45.905Z,226.48
2023-04-06T07:49:45.980Z,227.28
2023-04-06T07:50:46.060Z,226.93
2023-04-06T07:51:46.095Z,228.72
2023-04-06T07:52:46.169Z,227.58
2023-04-06T07:53:46.220Z,227.42
2023-04-06T07:54:46.282Z,227.73
2023-04-06T07:55:46.402Z,224.76
2023-04-06T07:56:46.411Z,224.60
2023-04-06T07:57:46.442Z,224.55
2023-04-06T07:58:46.518Z,225.36
2023-04-06T07:59:46.624Z,224.21
2023-04-06T08:00:46.631Z,225.34
2023-04-06T08:01:46.693Z,226.90
2023-04-06T08:02:46.805Z,226.02
2023-04-06T08:03:46.889Z,224.32
2023-04-06T08:04:46.926Z,222.72
2023-04-06T08:05:46.977Z,223.24
2023-04-06T08:06:47.023Z,222.34
2023-04-06T08:07:47.073Z,222.37
2023-04-06T08:08:47.138Z,221.23
2023-04-06T08:09:47.219Z,218.33
2023-04-06T08:10:47.258Z,218.12
2023-04-06T08:11:47.303Z,215.21
2023-04-06T08:12:47.391Z,213.49
2023-04-06T08:13:47.446Z,211.89
2023-04-06T08:14:47.489Z,208.51
2023-04-06T08:15:47.633Z,206.20
2023-04-06T08:16:47.578Z,204.17
2023-04-06T08:17:47.635Z,199.22
2023-04-06T08:18:47.686Z,199.88
2023-04-06T08:19:47.686Z,195.87
2023-04-06T08:20:47.726Z,199.45
2023-04-06T08:21:47.804Z,199.78
2023-04-06T08:22:47.854Z,194.24
2023-04-06T08:23:47.870Z,190.85
2023-04-06T08:24:47.918Z,189.80
2023-04-06T08:25:47.975Z,184.03
2023-04-06T08:26:47.991Z,186.08
2023-04-06T08:27:48.090Z,187.78
2023-04-06T08:28:48.099Z,189.12
2023-04-06T08:29:48.178Z,188.13
2023-04-06T08:30:48.241Z,186.74
2023-04-06T08:31:48.238Z,182.07
2023-04-06T08:32:48.438Z,181.36
2023-04-06T08:33:48.399Z,178.46
2023-04-06T08:34:48.417Z,178.82
2023-04-06T08:35:48.486Z,173.69
2023-04-06T08:36:48.489Z,175.05
2023-04-06T08:37:48.579Z,177.65
2023-04-06T08:38:48.999Z,175.61
2023-04-06T08:39:48.657Z,174.45
2023-04-06T08:40:48.694Z,176.12
2023-04-06T08:41:48.759Z,175.62
2023-04-06T08:42:48.829Z,174.01
2023-04-06T08:43:48.887Z,173.99
2023-04-06T08:44:48.884Z,173.23
2023-04-06T08:45:48.934Z,175.75
2023-04-06T08:46:49.022Z,173.93
2023-04-06T08:47:49.104Z,172.83
2023-04-06T08:48:49.083Z,171.29
2023-04-06T08:49:49.116Z,170.33
2023-04-06T08:50:49.178Z,171.20
2023-04-06T08:51:49.242Z,170.30
2023-04-06T08:52:49.286Z,168.07
2023-04-06T08:53:49.346Z,164.47
2023-04-06T08:54:49.352Z,167.95
2023-04-06T08:55:49.397Z,167.69
2023-04-06T08:56:49.478Z,165.61
2023-04-06T08:57:49.521Z,163.58
2023-04-06T08:58:49.634Z,163.18
2023-04-06T08:59:49.651Z,159.13
2023-04-06T09:00:49.649Z,157.76
2023-04-06T09:01:49.769Z,157.55
2023-04-06T09:02:49.908Z,156.60
2023-04-06T09:03:49.896Z,158.79
2023-04-06T09:04:49.880Z,151.13
2023-04-06T09:05:49.947Z,146.92
2023-04-06T09:06:49.945Z,142.92
2023-04-06T09:07:49.994Z,142.12
2023-04-06T09:08:50.078Z,142.49
2023-04-06T09:09:50.086Z,145.14
2023-04-06T09:10:50.201Z,144.15
2023-04-06T09:11:50.221Z,139.12
2023-04-06T09:12:50.251Z,135.05
2023-04-06T09:13:50.285Z,133.77
2023-04-06T09:14:50.317Z,136.92
2023-04-06T09:15:50.385Z,136.09
2023-04-06T09:16:50.440Z,126.36
2023-04-06T09:17:50.454Z,126.01
2023-04-06T09:18:50.503Z,131.40
2023-04-06T09:19:50.549Z,131.92
2023-04-06T09:20:50.581Z,133.93
2023-04-06T09:21:50.617Z,132.72
2023-04-06T09:22:50.631Z,131.04
2023-04-06T09:23:50.724Z,125.80
2023-04-06T09:24:50.698Z,122.68
2023-04-06T09:25:50.763Z,121.42
2023-04-06T09:26:50.752Z,126.93
2023-04-06T09:27:50.808Z,130.08
2023-04-06T09:28:50.835Z,128.30
2023-04-06T09:29:50.986Z,128.54
2023-04-06T09:30:50.914Z,123.02
2023-04-06T09:31:50.978Z,121.25
2023-04-06T09:32:51.032Z,121.64
2023-04-06T09:33:51.014Z,117.46
2023-04-06T09:34:51.151Z,122.01
2023-04-06T09:35:51.105Z,124.56
2023-04-06T09:36:51.089Z,128.52
2023-04-06T09:37:51.147Z,125.03
2023-04-06T09:38:51.463Z,122.16
2023-04-06T09:39:51.236Z,118.91
2023-04-06T09:41:00.660Z,119.00
2023-04-06T09:41:52.283Z,115.97
2023-04-06T09:42:51.285Z,115.12
2023-04-06T09:43:51.301Z,113.10
2023-04-06T09:44:51.253Z,109.02
2023-04-06T09:45:51.259Z,107.44
2023-04-06T09:47:00.496Z,113.43
2023-04-06T09:47:52.573Z,111.88
2023-04-06T09:48:51.216Z,107.61
2023-04-06T09:49:51.210Z,104.60
2023-04-06T09:50:51.195Z,108.14
2023-04-06T09:51:51.169Z,108.38
2023-04-06T09:52:51.262Z,105.59
2023-04-06T09:53:51.209Z,100.20
2023-04-06T09:54:51.206Z,103.09
2023-04-06T09:55:51.178Z,102.86
2023-04-06T09:56:51.166Z,105.50
2023-04-06T09:57:51.231Z,108.36
2023-04-06T09:58:51.389Z,108.21
2023-04-06T09:59:51.364Z,106.45
2023-04-06T10:00:53.092Z,109.37
2023-04-06T10:01:51.372Z,109.75
2023-04-06T10:02:51.431Z,106.22
2023-04-06T10:03:51.441Z,98.40
2023-04-06T10:04:51.488Z,96.55
2023-04-06T10:05:51.337Z,94.46
2023-04-06T10:06:51.326Z,92.83
2023-04-06T10:08:00.230Z,84.65
2023-04-06T10:08:52.329Z,84.85
2023-04-06T10:09:51.313Z,84.69
2023-04-06T10:10:51.323Z,78.99
2023-04-06T10:11:51.340Z,78.26
2023-04-06T10:12:51.264Z,76.39
2023-04-06T10:13:51.290Z,74.70
2023-04-06T10:14:51.297Z,72.42
2023-04-06T10:15:51.249Z,67.49
2023-04-06T10:16:51.371Z,66.71
2023-04-06T10:17:51.342Z,67.76
2023-04-06T10:18:51.384Z,65.53
2023-04-06T10:19:51.490Z,65.31
2023-04-06T10:20:51.485Z,70.84
2023-04-06T10:21:51.539Z,68.73
2023-04-06T10:22:51.534Z,63.61
2023-04-06T10:23:51.615Z,63.90
2023-04-06T10:24:51.673Z,68.97
2023-04-06T10:25:51.735Z,67.49
2023-04-06T10:26:51.780Z,67.16
2023-04-06T10:27:51.848Z,65.43
2023-04-06T10:28:51.900Z,65.01
2023-04-06T10:29:51.978Z,64.24
2023-04-06T10:30:51.976Z,68.13
2023-04-06T10:31:52.070Z,66.41
2023-04-06T10:32:52.117Z,66.91
2023-04-06T10:33:52.171Z,67.13
2023-04-06T10:34:52.212Z,71.67
2023-04-06T10:35:52.306Z,68.82
2023-04-06T10:36:52.323Z,75.32
2023-04-06T10:37:52.468Z,77.31
2023-04-06T10:38:52.489Z,78.36
2023-04-06T10:39:52.544Z,83.44
2023-04-06T10:40:52.587Z,87.32
2023-04-06T10:41:52.680Z,85.11
2023-04-06T10:42:52.728Z,85.66
2023-04-06T10:43:52.832Z,88.62
2023-04-06T10:44:52.819Z,91.05
2023-04-06T10:45:52.955Z,92.57
2023-04-06T10:46:52.945Z,94.98
2023-04-06T10:47:53.015Z,93.77
2023-04-06T10:48:53.051Z,93.94
2023-04-06T10:49:53.145Z,96.32
2023-04-06T10:50:53.189Z,94.14
2023-04-06T10:51:53.261Z,89.57
2023-04-06T10:52:53.268Z,91.40
2023-04-06T10:53:53.301Z,100.35
2023-04-06T10:54:53.316Z,104.09
2023-04-06T10:55:53.377Z,104.96
2023-04-06T10:56:53.433Z,104.99
2023-04-06T10:57:53.506Z,107.28
2023-04-06T10:58:53.619Z,107.48
2023-04-06T10:59:53.622Z,105.15
2023-04-06T11:00:53.689Z,103.38
2023-04-06T11:01:53.721Z,97.35
2023-04-06T11:02:53.741Z,86.30
2023-04-06T11:03:53.785Z,73.93
2023-04-06T11:04:53.802Z,75.91
2023-04-06T11:05:53.902Z,80.53
2023-04-06T11:06:53.922Z,79.37
2023-04-06T11:07:54.023Z,79.43
2023-04-06T11:08:54.063Z,85.96
2023-04-06T11:10:12.788Z,84.29
2023-04-06T11:10:55.111Z,84.41
2023-04-06T11:11:54.108Z,84.87
2023-04-06T11:12:54.069Z,85.48
2023-04-06T11:13:54.049Z,86.22
2023-04-06T11:14:54.130Z,89.95
2023-04-06T11:15:54.082Z,83.27
2023-04-06T11:16:54.096Z,84.97
2023-04-06T11:17:54.065Z,86.29
2023-04-06T11:18:55.045Z,89.19
2023-04-06T11:19:54.053Z,92.83
2023-04-06T11:20:54.104Z,78.96
2023-04-06T11:21:54.166Z,76.60
2023-04-06T11:22:54.224Z,76.66
2023-04-06T11:23:54.289Z,77.84
2023-04-06T11:24:54.339Z,76.40
2023-04-06T11:25:54.333Z,70.74
2023-04-06T11:26:54.476Z,69.43
2023-04-06T11:27:54.458Z,66.14
2023-04-06T11:28:54.495Z,66.23
2023-04-06T11:29:54.540Z,60.08
2023-04-06T11:30:54.710Z,58.67
2023-04-06T11:31:54.700Z,47.39
2023-04-06T11:32:54.792Z,47.80
2023-04-06T11:33:54.800Z,51.80
2023-04-06T11:34:54.869Z,55.24
2023-04-06T11:35:54.946Z,49.06
2023-04-06T11:36:54.990Z,51.37
2023-04-06T11:37:55.026Z,56.44
2023-04-06T11:38:55.115Z,36.45
2023-04-06T11:39:55.177Z,25.75
2023-04-06T11:40:55.283Z,28.44
2023-04-06T11:41:55.393Z,28.59
2023-04-06T11:42:55.435Z,32.66
2023-04-06T11:43:55.450Z,34.07
2023-04-06T11:44:55.493Z,40.64
2023-04-06T11:45:55.587Z,49.96
2023-04-06T11:46:55.599Z,49.91
2023-04-06T11:47:55.720Z,52.73
2023-04-06T11:48:55.766Z,51.53
2023-04-06T11:49:55.801Z,54.98
2023-04-06T11:50:55.914Z,61.21
2023-04-06T11:51:55.915Z,61.53
2023-04-06T11:52:55.981Z,60.79
2023-04-06T11:53:56.036Z,63.88
2023-04-06T11:54:56.109Z,62.46
2023-04-06T11:55:56.181Z,66.91
2023-04-06T11:56:56.258Z,64.27
2023-04-06T11:57:56.308Z,51.39
2023-04-06T11:58:56.391Z,49.12
2023-04-06T11:59:56.496Z,48.72
2023-04-06T12:00:56.461Z,53.85
2023-04-06T12:01:56.525Z,57.37
2023-04-06T12:02:56.686Z,55.91
2023-04-06T12:03:56.749Z,47.15
2023-04-06T12:04:56.720Z,39.32
2023-04-06T12:05:58.755Z,37.83
2023-04-06T12:06:56.776Z,52.53
2023-04-06T12:07:58.062Z,50.97
2023-04-06T12:08:56.747Z,51.14
2023-04-06T12:09:56.735Z,51.38
2023-04-06T12:10:56.764Z,52.17
2023-04-06T12:11:56.729Z,55.42
2023-04-06T12:12:56.727Z,60.33
2023-04-06T12:13:56.734Z,49.20
2023-04-06T12:14:56.703Z,53.29
2023-04-06T12:15:56.763Z,52.33
2023-04-06T12:16:56.695Z,53.36
2023-04-06T12:17:56.708Z,54.94
2023-04-06T12:18:56.690Z,50.50
2023-04-06T12:20:01.848Z,58.50
2023-04-06T12:20:57.696Z,58.49
2023-04-06T12:21:56.671Z,58.21
2023-04-06T12:22:56.655Z,60.00
2023-04-06T12:23:56.650Z,61.32
2023-04-06T12:24:56.658Z,61.02
2023-04-06T12:25:56.642Z,63.81
2023-04-06T12:27:08.699Z,62.17
2023-04-06T12:27:57.646Z,58.50
2023-04-06T12:28:56.620Z,61.36
2023-04-06T12:29:56.602Z,61.35
2023-04-06T12:30:56.627Z,57.51
2023-04-06T12:31:56.609Z,61.13
2023-04-06T12:32:56.732Z,58.02